createdAt,value
2023-05-19T00:00:50.885Z,23.92
2023-05-19T00:01:49.051Z,23.95
2023-05-19T00:02:49.050Z,23.95
2023-05-19T00:03:49.034Z,23.95
2023-05-19T00:04:48.941Z,23.95
2023-05-19T00:05:49.229Z,23.95
2023-05-19T00:06:48.918Z,23.97
2023-05-19T00:07:48.991Z,23.95
2023-05-19T00:08:48.894Z,23.94
2023-05-19T00:09:48.975Z,23.94
2023-05-19T00:10:48.890Z,23.94
2023-05-19T00:11:48.940Z,23.92
2023-05-19T00:12:48.852Z,23.95
2023-05-19T00:13:48.929Z,23.91
2023-05-19T00:14:48.830Z,23.92
2023-05-19T00:15:48.960Z,23.92
2023-05-19T00:16:48.843Z,23.92
2023-05-19T00:17:48.977Z,23.92
2023-05-19T00:18:48.815Z,23.91
2023-05-19T00:19:48.991Z,23.90
2023-05-19T00:20:48.786Z,23.92
2023-05-19T00:21:48.835Z,23.92
2023-05-19T00:22:48.761Z,23.94
2023-05-19T00:23:48.818Z,23.90
2023-05-19T00:24:48.736Z,23.91
2023-05-19T00:25:48.787Z,23.86
2023-05-19T00:26:48.713Z,23.91
2023-05-19T00:27:48.756Z,23.90
2023-05-19T00:28:48.692Z,23.90
2023-05-19T00:29:48.756Z,23.87
2023-05-19T00:30:48.674Z,23.90
2023-05-19T00:31:48.807Z,23.90
2023-05-19T00:32:48.690Z,23.92
2023-05-19T00:33:48.715Z,23.91
2023-05-19T00:34:48.635Z,23.90
2023-05-19T00:35:48.683Z,23.86
2023-05-19T00:36:48.611Z,23.86
2023-05-19T00:37:48.650Z,23.90
2023-05-19T00:38:48.593Z,23.87
2023-05-19T00:39:48.632Z,23.86
2023-05-19T00:40:48.566Z,23.87
2023-05-19T00:41:48.626Z,23.87
2023-05-19T00:42:48.549Z,23.87
2023-05-19T00:43:48.586Z,23.87
2023-05-19T00:44:48.531Z,23.86
2023-05-19T00:45:48.565Z,23.86
2023-05-19T00:46:48.539Z,23.90
2023-05-19T00:47:48.562Z,23.90
2023-05-19T00:48:48.482Z,23.87
2023-05-19T00:49:48.535Z,23.85
2023-05-19T00:50:48.473Z,23.85
2023-05-19T00:51:48.501Z,23.86
2023-05-19T00:52:48.439Z,23.86
2023-05-19T00:53:48.603Z,23.85
2023-05-19T00:54:48.420Z,23.85
2023-05-19T00:55:48.472Z,23.85
2023-05-19T00:56:48.400Z,23.83
2023-05-19T00:57:48.437Z,23.83
2023-05-19T00:58:48.377Z,23.83
2023-05-19T00:59:48.426Z,23.86
2023-05-19T01:00:48.366Z,23.85
2023-05-19T01:01:48.515Z,23.82
2023-05-19T01:02:48.443Z,23.83
2023-05-19T01:03:48.543Z,23.82
2023-05-19T01:04:48.315Z,23.82
2023-05-19T01:05:48.355Z,23.83
2023-05-19T01:06:48.295Z,23.82
2023-05-19T01:07:48.553Z,23.82
2023-05-19T01:08:48.269Z,23.83
2023-05-19T01:09:48.521Z,23.82
2023-05-19T01:10:48.244Z,23.83
2023-05-19T01:11:48.304Z,23.80
2023-05-19T01:12:48.231Z,23.80
2023-05-19T01:13:48.275Z,23.79
2023-05-19T01:14:48.215Z,23.80
2023-05-19T01:15:48.259Z,23.82
2023-05-19T01:16:48.221Z,23.82
2023-05-19T01:17:48.237Z,23.80
2023-05-19T01:18:48.175Z,23.80
2023-05-19T01:19:48.207Z,23.79
2023-05-19T01:20:48.166Z,23.80
2023-05-19T01:21:48.181Z,23.79
2023-05-19T01:22:48.122Z,23.79
2023-05-19T01:23:48.170Z,23.80
2023-05-19T01:24:48.105Z,23.82
2023-05-19T01:25:48.151Z,23.80
2023-05-19T01:26:48.080Z,23.79
2023-05-19T01:27:48.152Z,23.80
2023-05-19T01:28:48.061Z,23.79
2023-05-19T01:29:48.109Z,23.80
2023-05-19T01:30:48.037Z,23.76
2023-05-19T01:31:48.196Z,23.79
2023-05-19T01:32:48.076Z,23.79
2023-05-19T01:33:48.066Z,23.79
2023-05-19T01:34:47.999Z,23.76
2023-05-19T01:35:48.048Z,23.76
2023-05-19T01:36:47.972Z,23.79
2023-05-19T01:37:48.025Z,23.77
2023-05-19T01:38:47.977Z,23.79
2023-05-19T01:39:47.996Z,23.76
2023-05-19T01:40:47.935Z,23.79
2023-05-19T01:41:47.984Z,23.79
2023-05-19T01:42:47.922Z,23.77
2023-05-19T01:43:47.954Z,23.77
2023-05-19T01:44:47.905Z,23.77
2023-05-19T01:45:47.949Z,23.76
2023-05-19T01:46:47.873Z,23.76
2023-05-19T01:47:47.954Z,23.77
2023-05-19T01:48:47.869Z,23.76
2023-05-19T01:49:47.899Z,23.77
2023-05-19T01:50:47.832Z,23.76
2023-05-19T01:51:47.889Z,23.77
2023-05-19T01:52:47.815Z,23.75
2023-05-19T01:53:47.852Z,23.75
2023-05-19T01:54:47.801Z,23.73
2023-05-19T01:55:47.829Z,23.75
2023-05-19T01:56:47.773Z,23.75
2023-05-19T01:57:47.813Z,23.75
2023-05-19T01:58:47.749Z,23.72
2023-05-19T01:59:47.802Z,23.75
2023-05-19T02:00:47.719Z,23.72
2023-05-19T02:01:47.785Z,23.73
2023-05-19T02:02:47.758Z,23.72
2023-05-19T02:03:47.759Z,23.73
2023-05-19T02:04:47.873Z,23.73
2023-05-19T02:05:47.735Z,23.72
2023-05-19T02:06:47.663Z,23.73
2023-05-19T02:07:47.725Z,23.73
2023-05-19T02:08:47.643Z,23.72
2023-05-19T02:09:47.683Z,23.70
2023-05-19T02:10:47.618Z,23.72
2023-05-19T02:11:47.670Z,23.72
2023-05-19T02:12:47.600Z,23.72
2023-05-19T02:13:47.647Z,23.72
2023-05-19T02:14:47.574Z,23.73
2023-05-19T02:15:47.640Z,23.73
2023-05-19T02:16:47.600Z,23.72
2023-05-19T02:17:47.749Z,23.73
2023-05-19T02:18:47.602Z,23.68
2023-05-19T02:19:47.573Z,23.70
2023-05-19T02:20:47.511Z,23.68
2023-05-19T02:21:47.559Z,23.72
2023-05-19T02:22:47.492Z,23.65
2023-05-19T02:23:47.680Z,23.70
2023-05-19T02:24:47.466Z,23.68
2023-05-19T02:25:47.525Z,23.72
2023-05-19T02:26:47.438Z,23.70
2023-05-19T02:27:47.486Z,23.67
2023-05-19T02:28:47.425Z,23.67
2023-05-19T02:29:47.473Z,23.67
2023-05-19T02:30:47.417Z,23.70
2023-05-19T02:31:47.533Z,23.70
2023-05-19T02:32:47.417Z,23.68
2023-05-19T02:33:47.431Z,23.70
2023-05-19T02:34:47.359Z,23.68
2023-05-19T02:35:47.423Z,23.67
2023-05-19T02:36:47.337Z,23.65
2023-05-19T02:37:47.592Z,23.67
2023-05-19T02:38:47.316Z,23.67
2023-05-19T02:39:47.361Z,23.68
2023-05-19T02:40:47.300Z,23.65
2023-05-19T02:41:47.344Z,23.64
2023-05-19T02:42:47.271Z,23.67
2023-05-19T02:43:47.324Z,23.65
2023-05-19T02:44:47.253Z,23.65
2023-05-19T02:45:47.303Z,23.67
2023-05-19T02:46:47.326Z,23.65
2023-05-19T02:47:47.318Z,23.67
2023-05-19T02:48:47.210Z,23.62
2023-05-19T02:49:47.269Z,23.65
2023-05-19T02:50:47.191Z,23.62
2023-05-19T02:51:47.252Z,23.64
2023-05-19T02:52:47.173Z,23.67
2023-05-19T02:53:47.221Z,23.64
2023-05-19T02:54:47.145Z,23.64
2023-05-19T02:55:47.222Z,23.62
2023-05-19T02:56:47.130Z,23.65
2023-05-19T02:57:47.168Z,23.65
2023-05-19T02:58:47.106Z,23.64
2023-05-19T02:59:47.156Z,23.62
2023-05-19T03:00:47.085Z,23.64
2023-05-19T03:01:47.291Z,23.62
2023-05-19T03:02:47.365Z,23.64
2023-05-19T03:03:47.140Z,23.64
2023-05-19T03:04:47.065Z,23.64
2023-05-19T03:05:46.968Z,23.62
2023-05-19T03:06:47.045Z,23.62
2023-05-19T03:07:46.946Z,23.60
2023-05-19T03:08:47.013Z,23.61
2023-05-19T03:09:46.919Z,23.62
2023-05-19T03:10:46.999Z,23.62
2023-05-19T03:11:46.899Z,23.61
2023-05-19T03:12:46.971Z,23.62
2023-05-19T03:13:46.877Z,23.60
2023-05-19T03:14:46.946Z,23.60
2023-05-19T03:15:46.860Z,23.62
2023-05-19T03:16:47.089Z,23.61
2023-05-19T03:17:46.938Z,23.61
2023-05-19T03:18:46.955Z,23.62
2023-05-19T03:19:46.844Z,23.60
2023-05-19T03:20:46.889Z,23.61
2023-05-19T03:21:46.791Z,23.60
2023-05-19T03:22:46.869Z,23.58
2023-05-19T03:23:46.774Z,23.58
2023-05-19T03:24:46.845Z,23.60
2023-05-19T03:25:46.764Z,23.60
2023-05-19T03:26:46.814Z,23.60
2023-05-19T03:27:46.744Z,23.61
2023-05-19T03:28:46.799Z,23.60
2023-05-19T03:29:46.759Z,23.57
2023-05-19T03:30:47.791Z,23.58
2023-05-19T03:31:46.769Z,23.61
2023-05-19T03:32:46.788Z,23.61
2023-05-19T03:33:47.012Z,23.60
2023-05-19T03:34:46.666Z,23.58
2023-05-19T03:35:46.721Z,23.58
2023-05-19T03:36:46.652Z,23.60
2023-05-19T03:37:46.772Z,23.61
2023-05-19T03:38:46.633Z,23.60
2023-05-19T03:39:46.671Z,23.58
2023-05-19T03:40:46.607Z,23.61
2023-05-19T03:41:46.670Z,23.60
2023-05-19T03:42:46.588Z,23.61
2023-05-19T03:43:46.630Z,23.60
2023-05-19T03:44:46.568Z,23.58
2023-05-19T03:45:46.681Z,23.60
2023-05-19T03:46:46.551Z,23.60
2023-05-19T03:47:46.781Z,23.58
2023-05-19T03:48:46.526Z,23.60
2023-05-19T03:49:46.563Z,23.57
2023-05-19T03:50:46.502Z,23.60
2023-05-19T03:51:46.552Z,23.61
2023-05-19T03:52:46.514Z,23.60
2023-05-19T03:53:46.532Z,23.61
2023-05-19T03:54:46.468Z,23.61
2023-05-19T03:55:46.507Z,23.61
2023-05-19T03:56:46.437Z,23.58
2023-05-19T03:57:46.496Z,23.61
2023-05-19T03:58:46.417Z,23.60
2023-05-19T03:59:46.471Z,23.62
2023-05-19T04:00:46.392Z,23.62
2023-05-19T04:01:46.474Z,23.64
2023-05-19T04:02:46.406Z,23.64
2023-05-19T04:03:46.481Z,23.61
2023-05-19T04:04:46.402Z,23.61
2023-05-19T04:05:46.404Z,23.65
2023-05-19T04:06:46.335Z,23.62
2023-05-19T04:07:46.381Z,23.64
2023-05-19T04:08:46.311Z,23.65
2023-05-19T04:09:46.351Z,23.64
2023-05-19T04:10:46.290Z,23.64
2023-05-19T04:11:46.347Z,23.64
2023-05-19T04:12:46.272Z,23.64
2023-05-19T04:13:46.303Z,23.64
2023-05-19T04:14:46.250Z,23.65
2023-05-19T04:15:46.313Z,23.65
2023-05-19T04:16:46.230Z,23.67
2023-05-19T04:17:46.294Z,23.65
2023-05-19T04:18:46.474Z,23.67
2023-05-19T04:19:46.257Z,23.68
2023-05-19T04:20:46.183Z,23.68
2023-05-19T04:21:46.236Z,23.68
2023-05-19T04:22:46.162Z,23.72
2023-05-19T04:23:46.224Z,23.70
2023-05-19T04:24:46.144Z,23.73
2023-05-19T04:25:46.202Z,23.75
2023-05-19T04:26:46.130Z,23.76
2023-05-19T04:27:46.173Z,23.76
2023-05-19T04:28:46.100Z,23.79
2023-05-19T04:29:46.160Z,23.76
2023-05-19T04:30:46.104Z,23.79
2023-05-19T04:31:46.172Z,23.82
2023-05-19T04:32:46.096Z,23.83
2023-05-19T04:33:46.111Z,23.86
2023-05-19T04:34:46.026Z,23.91
2023-05-19T04:35:46.109Z,23.94
2023-05-19T04:36:46.007Z,23.98
2023-05-19T04:37:46.078Z,24.02
2023-05-19T04:38:45.981Z,24.03
2023-05-19T04:39:46.159Z,24.11
2023-05-19T04:40:45.961Z,24.13
2023-05-19T04:41:46.024Z,24.20
2023-05-19T04:42:46.137Z,24.21
2023-05-19T04:43:46.185Z,24.24
2023-05-19T04:44:45.924Z,24.33
2023-05-19T04:45:45.984Z,24.39
2023-05-19T04:46:45.909Z,24.40
2023-05-19T04:47:45.996Z,24.48
2023-05-19T04:48:45.878Z,24.53
2023-05-19T04:49:45.950Z,24.55
2023-05-19T04:50:45.850Z,24.65
2023-05-19T04:51:45.929Z,24.70
2023-05-19T04:52:45.834Z,24.73
2023-05-19T04:53:45.905Z,24.83
2023-05-19T04:54:45.810Z,24.90
2023-05-19T04:55:45.878Z,24.97
2023-05-19T04:56:45.790Z,25.10
2023-05-19T04:57:45.852Z,25.28
2023-05-19T04:58:45.772Z,25.50
2023-05-19T04:59:45.843Z,25.72
2023-05-19T05:00:45.748Z,25.96
2023-05-19T05:01:45.854Z,26.22
2023-05-19T05:02:45.785Z,26.47
2023-05-19T05:03:45.847Z,26.72
2023-05-19T05:04:45.700Z,26.92
2023-05-19T05:05:45.876Z,27.08
2023-05-19T05:06:45.678Z,27.27
2023-05-19T05:07:45.845Z,27.48
2023-05-19T05:08:45.655Z,27.66
2023-05-19T05:09:45.736Z,27.82
2023-05-19T05:10:45.632Z,27.95
2023-05-19T05:11:45.710Z,28.10
2023-05-19T05:12:45.609Z,28.24
2023-05-19T05:13:45.679Z,28.39
2023-05-19T05:14:45.594Z,28.51
2023-05-19T05:15:45.686Z,28.67
2023-05-19T05:16:45.744Z,28.81
2023-05-19T05:17:45.672Z,28.94
2023-05-19T05:18:45.562Z,29.00
2023-05-19T05:19:45.623Z,29.07
2023-05-19T05:20:45.523Z,29.16
2023-05-19T05:21:45.603Z,29.23
2023-05-19T05:22:45.511Z,29.34
2023-05-19T05:23:45.571Z,29.40
2023-05-19T05:24:45.486Z,29.28
2023-05-19T05:25:45.542Z,29.25
2023-05-19T05:26:45.460Z,29.21
2023-05-19T05:27:45.541Z,29.13
2023-05-19T05:28:45.440Z,28.97
2023-05-19T05:29:45.502Z,28.82
2023-05-19T05:30:45.418Z,28.82
2023-05-19T05:31:45.498Z,28.94
2023-05-19T05:32:45.531Z,29.22
2023-05-19T05:33:45.571Z,29.44
2023-05-19T05:34:45.377Z,29.56
2023-05-19T05:35:45.471Z,29.67
2023-05-19T05:36:45.350Z,29.76
2023-05-19T05:37:45.437Z,29.84
2023-05-19T05:38:45.339Z,29.81
2023-05-19T05:39:45.409Z,29.67
2023-05-19T05:40:45.321Z,29.64
2023-05-19T05:41:45.402Z,29.64
2023-05-19T05:42:45.292Z,29.62
2023-05-19T05:43:45.358Z,29.62
2023-05-19T05:44:45.271Z,29.60
2023-05-19T05:45:45.402Z,29.50
2023-05-19T05:46:45.260Z,29.38
2023-05-19T05:47:45.359Z,29.25
2023-05-19T05:48:45.252Z,29.09
2023-05-19T05:49:45.299Z,28.93
2023-05-19T05:50:45.210Z,28.79
2023-05-19T05:51:54.613Z,28.66
2023-05-19T05:52:45.200Z,28.59
2023-05-19T05:53:45.299Z,28.48
2023-05-19T05:54:45.163Z,28.38
2023-05-19T05:55:45.240Z,28.35
2023-05-19T05:56:45.144Z,28.26
2023-05-19T05:57:45.219Z,28.26
2023-05-19T05:58:45.126Z,28.25
2023-05-19T05:59:45.193Z,28.26
2023-05-19T06:00:45.119Z,28.32
2023-05-19T06:01:45.193Z,28.37
2023-05-19T06:02:45.139Z,28.42
2023-05-19T06:03:45.255Z,28.51
2023-05-19T06:04:45.084Z,28.60
2023-05-19T06:05:45.175Z,28.70
2023-05-19T06:06:45.042Z,28.84
2023-05-19T06:07:45.122Z,28.97
2023-05-19T06:08:45.024Z,29.16
2023-05-19T06:09:45.088Z,29.37
2023-05-19T06:10:47.253Z,29.59
2023-05-19T06:11:45.086Z,29.90
2023-05-19T06:12:44.994Z,30.19
2023-05-19T06:13:45.073Z,30.45
2023-05-19T06:14:44.973Z,30.74
2023-05-19T06:15:45.052Z,30.95
2023-05-19T06:16:44.952Z,31.24
2023-05-19T06:17:45.032Z,31.51
2023-05-19T06:18:44.989Z,31.74
2023-05-19T06:19:44.995Z,32.00
2023-05-19T06:20:44.907Z,32.20
2023-05-19T06:21:44.979Z,32.32
2023-05-19T06:22:44.891Z,32.44
2023-05-19T06:23:44.971Z,32.60
2023-05-19T06:24:44.894Z,32.78
2023-05-19T06:25:44.945Z,32.97
2023-05-19T06:26:44.848Z,33.11
2023-05-19T06:27:44.908Z,33.35
2023-05-19T06:28:44.817Z,33.56
2023-05-19T06:29:44.906Z,33.76
2023-05-19T06:30:44.803Z,33.95
2023-05-19T06:31:44.898Z,34.13
2023-05-19T06:32:44.809Z,34.24
2023-05-19T06:33:44.858Z,34.33
2023-05-19T06:34:44.762Z,34.38
2023-05-19T06:35:44.840Z,34.58
2023-05-19T06:36:44.738Z,34.58
2023-05-19T06:37:44.832Z,33.61
2023-05-19T06:38:44.725Z,33.35
2023-05-19T06:39:44.788Z,33.22
2023-05-19T06:40:44.694Z,33.19
2023-05-19T06:41:44.769Z,33.19
2023-05-19T06:42:44.694Z,33.15
2023-05-19T06:43:44.749Z,33.11
2023-05-19T06:44:44.669Z,33.00
2023-05-19T06:45:44.729Z,33.00
2023-05-19T06:46:44.658Z,32.92
2023-05-19T06:47:44.744Z,32.89
2023-05-19T06:48:44.615Z,32.83
2023-05-19T06:49:44.677Z,32.82
2023-05-19T06:50:44.593Z,32.78
2023-05-19T06:51:44.666Z,32.77
2023-05-19T06:52:44.569Z,32.75
2023-05-19T06:53:44.644Z,32.74
2023-05-19T06:54:44.548Z,32.73
2023-05-19T06:55:54.803Z,32.71
2023-05-19T06:56:44.528Z,32.70
2023-05-19T06:57:44.590Z,32.70
2023-05-19T06:58:44.502Z,32.68
2023-05-19T06:59:44.601Z,32.67
2023-05-19T07:00:44.482Z,32.64
2023-05-19T07:01:44.592Z,32.59
2023-05-19T07:02:44.532Z,32.50
2023-05-19T07:03:44.623Z,32.30
2023-05-19T07:04:44.437Z,32.14
2023-05-19T07:05:44.505Z,32.15
2023-05-19T07:06:44.416Z,32.13
2023-05-19T07:07:44.498Z,32.13
2023-05-19T07:08:44.407Z,32.08
2023-05-19T07:09:44.479Z,32.07
2023-05-19T07:10:44.380Z,32.14
2023-05-19T07:11:44.446Z,32.13
2023-05-19T07:12:44.366Z,32.17
2023-05-19T07:13:44.438Z,32.26
2023-05-19T07:14:44.327Z,32.28
2023-05-19T07:15:44.392Z,32.33
2023-05-19T07:16:44.340Z,32.40
2023-05-19T07:17:44.514Z,32.56
2023-05-19T07:18:44.357Z,32.65
2023-05-19T07:19:44.364Z,32.73
2023-05-19T07:20:44.276Z,32.75
2023-05-19T07:21:44.343Z,32.82
2023-05-19T07:22:44.244Z,32.74
2023-05-19T07:23:44.345Z,32.70
2023-05-19T07:24:44.223Z,32.58
2023-05-19T07:25:44.291Z,32.48
2023-05-19T07:26:44.209Z,32.37
2023-05-19T07:27:44.261Z,32.32
2023-05-19T07:28:44.176Z,32.18
2023-05-19T07:29:44.247Z,31.96
2023-05-19T07:30:44.170Z,31.73
2023-05-19T07:31:44.301Z,31.46
2023-05-19T07:32:44.155Z,31.17
2023-05-19T07:33:44.245Z,30.80
2023-05-19T07:34:44.124Z,30.49
2023-05-19T07:35:44.181Z,30.16
2023-05-19T07:36:44.100Z,29.86
2023-05-19T07:37:44.157Z,29.60
2023-05-19T07:38:44.089Z,29.34
2023-05-19T07:39:44.138Z,29.12
2023-05-19T07:40:44.058Z,28.94
2023-05-19T07:41:44.114Z,28.78
2023-05-19T07:42:44.034Z,28.60
2023-05-19T07:43:44.097Z,28.44
2023-05-19T07:44:44.014Z,28.29
2023-05-19T07:45:44.085Z,28.16
2023-05-19T07:46:44.008Z,28.03
2023-05-19T07:47:44.090Z,27.92
2023-05-19T07:48:43.980Z,27.84
2023-05-19T07:49:44.059Z,27.74
2023-05-19T07:50:43.952Z,27.64
2023-05-19T07:51:44.022Z,27.59
2023-05-19T07:52:43.928Z,27.52
2023-05-19T07:53:44.007Z,27.45
2023-05-19T07:54:43.913Z,27.40
2023-05-19T07:55:43.998Z,27.35
2023-05-19T07:56:43.895Z,27.29
2023-05-19T07:57:43.964Z,27.26
2023-05-19T07:58:43.871Z,27.20
2023-05-19T07:59:43.979Z,27.17
2023-05-19T08:00:43.846Z,27.12
2023-05-19T08:01:43.931Z,27.08
2023-05-19T08:02:43.882Z,27.07
2023-05-19T08:03:43.923Z,27.02
2023-05-19T08:04:43.833Z,26.97
2023-05-19T08:05:43.884Z,26.95
2023-05-19T08:06:43.789Z,26.93
2023-05-19T08:07:43.852Z,26.88
2023-05-19T08:08:43.765Z,26.84
2023-05-19T08:09:43.850Z,26.83
2023-05-19T08:10:43.745Z,26.80
2023-05-19T08:11:43.831Z,26.79
2023-05-19T08:12:43.728Z,26.76
2023-05-19T08:13:43.800Z,26.73
2023-05-19T08:14:43.705Z,26.72
2023-05-19T08:15:43.809Z,26.67
2023-05-19T08:16:43.693Z,26.62
2023-05-19T08:17:43.789Z,26.64
2023-05-19T08:18:43.674Z,26.62
2023-05-19T08:19:43.756Z,26.58
2023-05-19T08:20:43.644Z,26.57
2023-05-19T08:21:43.721Z,26.54
2023-05-19T08:22:43.625Z,26.54
2023-05-19T08:23:43.701Z,26.51
2023-05-19T08:24:43.604Z,26.47
2023-05-19T08:25:43.701Z,26.50
2023-05-19T08:26:43.607Z,26.44
2023-05-19T08:27:43.659Z,26.44
2023-05-19T08:28:43.562Z,26.43
2023-05-19T08:29:43.638Z,26.40
2023-05-19T08:30:43.541Z,26.37
2023-05-19T08:31:43.632Z,26.36
2023-05-19T08:32:43.578Z,26.35
2023-05-19T08:33:43.620Z,26.33
2023-05-19T08:34:43.514Z,26.33
2023-05-19T08:35:43.586Z,26.32
2023-05-19T08:36:43.479Z,26.30
2023-05-19T08:37:43.556Z,26.27
2023-05-19T08:38:43.473Z,26.28
2023-05-19T08:39:43.530Z,26.27
2023-05-19T08:40:43.453Z,26.25
2023-05-19T08:41:43.507Z,26.24
2023-05-19T08:42:43.415Z,26.21
2023-05-19T08:43:43.489Z,26.21
2023-05-19T08:44:43.402Z,26.21
2023-05-19T08:45:43.480Z,26.18
2023-05-19T08:46:43.407Z,26.20
2023-05-19T08:47:43.457Z,26.18
2023-05-19T08:48:43.368Z,26.14
2023-05-19T08:49:43.417Z,26.15
2023-05-19T08:50:43.345Z,26.13
2023-05-19T08:51:43.386Z,26.13
2023-05-19T08:52:44.114Z,26.10
2023-05-19T08:53:43.370Z,26.13
2023-05-19T08:54:43.291Z,26.09
2023-05-19T08:55:43.353Z,26.07
2023-05-19T08:56:43.279Z,26.06
2023-05-19T08:57:43.333Z,26.03
2023-05-19T08:58:43.263Z,26.05
2023-05-19T08:59:43.307Z,26.00
2023-05-19T09:00:43.262Z,26.03
2023-05-19T09:01:43.288Z,26.00
2023-05-19T09:02:50.637Z,26.02
2023-05-19T09:03:43.382Z,26.02
2023-05-19T09:04:43.225Z,25.98
2023-05-19T09:05:43.279Z,25.99
2023-05-19T09:06:43.170Z,25.95
2023-05-19T09:07:43.275Z,25.91
2023-05-19T09:08:43.157Z,25.93
2023-05-19T09:09:43.191Z,25.93
2023-05-19T09:10:43.134Z,25.91
2023-05-19T09:11:43.168Z,25.90
2023-05-19T09:12:43.127Z,25.90
2023-05-19T09:13:43.162Z,25.88
2023-05-19T09:14:43.085Z,25.85
2023-05-19T09:15:43.125Z,25.85
2023-05-19T09:16:43.092Z,25.84
2023-05-19T09:17:43.196Z,25.84
2023-05-19T09:18:43.079Z,25.83
2023-05-19T09:19:43.099Z,25.81
2023-05-19T09:20:43.035Z,25.81
2023-05-19T09:21:44.503Z,25.77
2023-05-19T09:22:43.019Z,25.78
2023-05-19T09:23:43.047Z,25.77
2023-05-19T09:24:42.984Z,25.77
2023-05-19T09:25:43.029Z,25.75
2023-05-19T09:26:42.987Z,25.77
2023-05-19T09:27:43.015Z,25.73
2023-05-19T09:28:42.938Z,25.72
2023-05-19T09:29:42.994Z,25.70
2023-05-19T09:30:42.918Z,25.72
2023-05-19T09:31:42.986Z,25.68
2023-05-19T09:32:43.628Z,25.69
2023-05-19T09:33:45.558Z,25.69
2023-05-19T09:34:42.885Z,25.72
2023-05-19T09:35:42.915Z,25.69
2023-05-19T09:36:42.854Z,25.69
2023-05-19T09:37:42.924Z,25.68
2023-05-19T09:38:42.835Z,25.66
2023-05-19T09:39:42.883Z,25.66
2023-05-19T09:40:42.808Z,25.66
2023-05-19T09:41:42.867Z,25.62
2023-05-19T09:42:42.794Z,25.62
2023-05-19T09:43:42.839Z,25.60
2023-05-19T09:44:42.766Z,25.60
2023-05-19T09:45:42.870Z,25.60
2023-05-19T09:46:42.825Z,25.60
2023-05-19T09:47:42.899Z,25.59
2023-05-19T09:48:42.732Z,25.59
2023-05-19T09:49:42.774Z,25.62
2023-05-19T09:50:42.701Z,25.59
2023-05-19T09:51:42.749Z,25.55
2023-05-19T09:52:42.681Z,25.58
2023-05-19T09:53:42.731Z,25.55
2023-05-19T09:54:42.665Z,25.58
2023-05-19T09:55:42.716Z,25.58
2023-05-19T09:56:42.642Z,25.55
2023-05-19T09:57:42.691Z,25.54
2023-05-19T09:58:42.621Z,25.55
2023-05-19T09:59:42.662Z,25.53
2023-05-19T10:00:42.595Z,25.53
2023-05-19T10:01:42.694Z,25.51
2023-05-19T10:02:42.613Z,25.50
2023-05-19T10:03:42.696Z,25.50
2023-05-19T10:04:42.591Z,25.51
2023-05-19T10:05:42.592Z,25.50
2023-05-19T10:06:42.529Z,25.48
2023-05-19T10:07:42.587Z,25.50
2023-05-19T10:08:42.515Z,25.47
2023-05-19T10:09:42.563Z,25.50
2023-05-19T10:10:42.488Z,25.47
2023-05-19T10:11:42.537Z,25.48
2023-05-19T10:12:42.467Z,25.48
2023-05-19T10:13:42.507Z,25.47
2023-05-19T10:14:42.453Z,25.47
2023-05-19T10:15:57.277Z,25.46
2023-05-19T10:16:42.493Z,25.48
2023-05-19T10:17:42.493Z,25.46
2023-05-19T10:18:42.425Z,25.46
2023-05-19T10:19:42.442Z,25.46
2023-05-19T10:20:42.381Z,25.46
2023-05-19T10:21:42.433Z,25.44
2023-05-19T10:22:42.360Z,25.42
2023-05-19T10:23:42.412Z,25.42
2023-05-19T10:24:42.340Z,25.40
2023-05-19T10:25:42.394Z,25.40
2023-05-19T10:26:42.315Z,25.40
2023-05-19T10:27:42.368Z,25.40
2023-05-19T10:28:42.291Z,25.40
2023-05-19T10:29:42.337Z,25.37
2023-05-19T10:30:42.273Z,25.37
2023-05-19T10:31:42.361Z,25.37
2023-05-19T10:32:42.296Z,25.39
2023-05-19T10:33:42.304Z,25.40
2023-05-19T10:34:42.243Z,25.35
2023-05-19T10:35:42.271Z,25.39
2023-05-19T10:36:42.210Z,25.37
2023-05-19T10:37:42.267Z,25.37
2023-05-19T10:38:42.196Z,25.34
2023-05-19T10:39:42.230Z,25.32
2023-05-19T10:40:42.169Z,25.34
2023-05-19T10:41:42.213Z,25.34
2023-05-19T10:42:42.147Z,25.31
2023-05-19T10:43:42.188Z,25.30
2023-05-19T10:44:42.132Z,25.32
2023-05-19T10:45:42.175Z,25.31
2023-05-19T10:46:42.143Z,25.32
2023-05-19T10:47:42.185Z,25.32
2023-05-19T10:48:42.100Z,25.30
2023-05-19T10:49:42.135Z,25.30
2023-05-19T10:50:42.065Z,25.31
2023-05-19T10:51:42.113Z,25.30
2023-05-19T10:52:42.038Z,25.30
2023-05-19T10:53:42.094Z,25.30
2023-05-19T10:54:42.020Z,25.28
2023-05-19T10:55:42.072Z,25.28
2023-05-19T10:56:42.004Z,25.28
2023-05-19T10:57:42.051Z,25.28
2023-05-19T10:58:41.981Z,25.28
2023-05-19T10:59:42.034Z,25.25
2023-05-19T11:00:42.145Z,25.25
2023-05-19T11:01:41.989Z,25.25
2023-05-19T11:02:42.100Z,25.27
2023-05-19T11:03:42.894Z,25.25
2023-05-19T11:04:41.980Z,25.25
2023-05-19T11:05:41.901Z,25.25
2023-05-19T11:06:41.972Z,25.24
2023-05-19T11:07:41.879Z,25.25
2023-05-19T11:08:41.952Z,25.25
2023-05-19T11:09:41.857Z,25.22
2023-05-19T11:10:41.927Z,25.24
2023-05-19T11:11:41.833Z,25.25
2023-05-19T11:12:41.907Z,25.24
2023-05-19T11:13:41.810Z,25.24
2023-05-19T11:14:41.885Z,25.22
2023-05-19T11:15:41.787Z,25.21
2023-05-19T11:16:41.940Z,25.22
2023-05-19T11:17:41.821Z,25.22
2023-05-19T11:18:41.871Z,25.22
2023-05-19T11:19:41.747Z,25.24
2023-05-19T11:20:41.843Z,25.22
2023-05-19T11:21:41.723Z,25.24
2023-05-19T11:22:41.789Z,25.22
2023-05-19T11:23:41.788Z,25.21
2023-05-19T11:24:41.775Z,25.24
2023-05-19T11:25:41.683Z,25.22
2023-05-19T11:26:41.754Z,25.22
2023-05-19T11:27:41.655Z,25.22
2023-05-19T11:28:41.737Z,25.20
2023-05-19T11:29:41.636Z,25.20
2023-05-19T11:30:41.715Z,25.20
2023-05-19T11:31:41.704Z,25.21
2023-05-19T11:32:41.698Z,25.17
2023-05-19T11:33:41.594Z,25.16
2023-05-19T11:34:41.666Z,25.17
2023-05-19T11:35:41.582Z,25.20
2023-05-19T11:36:41.650Z,25.16
2023-05-19T11:37:41.563Z,25.16
2023-05-19T11:38:41.612Z,25.17
2023-05-19T11:39:41.533Z,25.16
2023-05-19T11:40:41.605Z,25.15
2023-05-19T11:41:41.507Z,25.13
2023-05-19T11:42:41.572Z,25.15
2023-05-19T11:43:41.505Z,25.16
2023-05-19T11:44:41.548Z,25.16
2023-05-19T11:45:41.492Z,25.15
2023-05-19T11:46:41.605Z,25.15
2023-05-19T11:47:56.459Z,25.15
2023-05-19T11:48:41.550Z,25.13
2023-05-19T11:49:41.432Z,25.15
2023-05-19T11:50:41.485Z,25.15
2023-05-19T11:51:41.394Z,25.15
2023-05-19T11:52:41.465Z,25.16
2023-05-19T11:53:41.380Z,25.13
2023-05-19T11:54:41.458Z,25.16
2023-05-19T11:55:41.357Z,25.13
2023-05-19T11:56:41.427Z,25.10
2023-05-19T11:57:44.756Z,25.10
2023-05-19T11:58:41.402Z,25.12
2023-05-19T11:59:41.324Z,25.10
2023-05-19T12:00:41.417Z,25.09
2023-05-19T12:01:41.296Z,25.10
2023-05-19T12:02:41.534Z,25.12
2023-05-19T12:03:41.364Z,25.13
2023-05-19T12:04:41.394Z,25.12
2023-05-19T12:05:43.494Z,25.10
2023-05-19T12:06:41.433Z,25.10
2023-05-19T12:07:41.228Z,25.10
2023-05-19T12:08:41.294Z,25.09
2023-05-19T12:09:41.207Z,25.10
2023-05-19T12:10:41.583Z,25.10
2023-05-19T12:11:41.195Z,25.09
2023-05-19T12:12:41.254Z,25.10
2023-05-19T12:13:41.164Z,25.09
2023-05-19T12:14:41.240Z,25.10
2023-05-19T12:15:41.137Z,25.06
2023-05-19T12:16:41.253Z,25.06
2023-05-19T12:17:41.151Z,25.07
2023-05-19T12:18:41.203Z,25.06
2023-05-19T12:19:41.107Z,25.07
2023-05-19T12:20:41.165Z,25.05
2023-05-19T12:21:41.083Z,25.06
2023-05-19T12:22:41.156Z,25.05
2023-05-19T12:23:41.057Z,25.05
2023-05-19T12:24:41.127Z,25.05
2023-05-19T12:25:41.052Z,25.05
2023-05-19T12:26:41.106Z,25.05
2023-05-19T12:27:41.014Z,25.03
2023-05-19T12:28:41.084Z,25.05
2023-05-19T12:29:41.014Z,25.03
2023-05-19T12:30:41.073Z,25.03
2023-05-19T12:31:40.995Z,25.00
2023-05-19T12:32:41.096Z,25.02
2023-05-19T12:33:40.959Z,25.03
2023-05-19T12:34:41.023Z,25.02
2023-05-19T12:35:40.931Z,25.03
2023-05-19T12:36:40.996Z,25.03
2023-05-19T12:37:40.908Z,25.03
2023-05-19T12:38:40.973Z,25.03
2023-05-19T12:39:40.882Z,25.02
2023-05-19T12:40:40.961Z,25.03
2023-05-19T12:41:40.871Z,24.98
2023-05-19T12:42:40.953Z,25.02
2023-05-19T12:43:40.845Z,25.02
2023-05-19T12:44:40.916Z,25.00
2023-05-19T12:45:40.891Z,25.00
2023-05-19T12:46:40.899Z,25.03
2023-05-19T12:47:40.861Z,25.03
2023-05-19T12:48:40.877Z,25.03
2023-05-19T12:49:40.782Z,25.02
2023-05-19T12:50:40.851Z,25.02
2023-05-19T12:51:40.760Z,25.02
2023-05-19T12:52:40.839Z,25.02